sensor_id;sensor_type;location;lat;lon;timestamp;P1;durP1;ratioP1;P2;durP2;ratioP2
40815;SDS011;26535;48.788;9.214;2022-11-20T00:00:07;17.33;;;9.82;;
40815;SDS011;26535;48.788;9.214;2022-11-20T07:01:30;5.13;;;2.10;;
40815;SDS011;26535;48.788;9.214;2022-11-20T07:03:56;3.30;;;1.83;;
40815;SDS011;26535;48.788;9.214;2022-11-20T07:06:22;3.17;;;1.60;;
40815;SDS011;26535;48.788;9.214;2022-11-20T07:08:49;2.83;;;1.67;;
40815;SDS011;26535;48.788;9.214;2022-11-20T07:11:17;3.33;;;1.88;;
40815;SDS011;26535;48.788;9.214;2022-11-20T07:13:43;3.50;;;2.17;;
40815;SDS011;26535;48.788;9.214;2022-11-20T07:16:09;5.43;;;1.85;;
40815;SDS011;26535;48.788;9.214;2022-11-20T07:18:35;4.15;;;1.90;;
40815;SDS011;26535;48.788;9.214;2022-11-20T07:21:04;3.45;;;1.90;;
40815;SDS011;26535;48.788;9.214;2022-11-20T07:23:32;5.90;;;1.70;;
40815;SDS011;26535;48.788;9.214;2022-11-20T07:26:06;3.85;;;1.80;;
40815;SDS011;26535;48.788;9.214;2022-11-20T07:28:33;3.95;;;1.70;;
40815;SDS011;26535;48.788;9.214;2022-11-20T07:30:59;2.80;;;1.67;;
40815;SDS011;26535;48.788;9.214;2022-11-20T07:33:25;4.22;;;2.30;;
40815;SDS011;26535;48.788;9.214;2022-11-20T07:35:51;3.97;;;1.73;;
40815;SDS011;26535;48.788;9.214;2022-11-20T07:38:16;4.75;;;1.90;;
40815;SDS011;26535;48.788;9.214;2022-11-20T07:40:42;3.47;;;1.83;;
40815;SDS011;26535;48.788;9.214;2022-11-20T07:43:08;3.55;;;1.60;;
40815;SDS011;26535;48.788;9.214;2022-11-20T07:45:34;4.70;;;2.00;;
40815;SDS011;26535;48.788;9.214;2022-11-20T07:48:00;4.30;;;2.20;;
40815;SDS011;26535;48.788;9.214;2022-11-20T07:50:26;2.75;;;1.63;;
40815;SDS011;26535;48.788;9.214;2022-11-20T07:52:52;3.53;;;1.52;;
40815;SDS011;26535;48.788;9.214;2022-11-20T07:55:24;3.97;;;1.40;;
40815;SDS011;26535;48.788;9.214;2022-11-20T07:57:54;3.17;;;1.58;;
40815;SDS011;26535;48.788;9.214;2022-11-20T08:00:21;2.92;;;1.35;;
40815;SDS011;26535;48.788;9.214;2022-11-20T08:02:47;2.97;;;1.27;;
40815;SDS011;26535;48.788;9.214;2022-11-20T08:05:18;2.67;;;1.30;;
40815;SDS011;26535;48.788;9.214;2022-11-20T08:07:44;3.80;;;1.50;;
40815;SDS011;26535;48.788;9.214;2022-11-20T08:10:14;3.25;;;1.88;;
40815;SDS011;26535;48.788;9.214;2022-11-20T08:12:44;3.28;;;1.55;;
40815;SDS011;26535;48.788;9.214;2022-11-20T08:15:40;5.28;;;3.15;;
40815;SDS011;26535;48.788;9.214;2022-11-20T08:18:06;2.40;;;1.48;;
40815;SDS011;26535;48.788;9.214;2022-11-20T08:20:40;3.42;;;1.58;;
40815;SDS011;26535;48.788;9.214;2022-11-20T08:23:07;3.65;;;1.55;;
40815;SDS011;26535;48.788;9.214;2022-11-20T08:25:33;2.50;;;1.30;;
40815;SDS011;26535;48.788;9.214;2022-11-20T08:28:01;2.80;;;1.60;;
40815;SDS011;26535;48.788;9.214;2022-11-20T08:30:28;3.10;;;1.55;;
40815;SDS011;26535;48.788;9.214;2022-11-20T08:36:23;3.08;;;1.05;;
40815;SDS011;26535;48.788;9.214;2022-11-20T08:38:54;3.15;;;1.40;;
40815;SDS011;26535;48.788;9.214;2022-11-20T08:41:39;3.17;;;1.15;;
40815;SDS011;26535;48.788;9.214;2022-11-20T08:44:25;2.83;;;1.15;;
40815;SDS011;26535;48.788;9.214;2022-11-20T08:47:02;2.80;;;1.10;;
40815;SDS011;26535;48.788;9.214;2022-11-20T08:49:36;2.50;;;1.20;;
40815;SDS011;26535;48.788;9.214;2022-11-20T08:52:08;2.67;;;1.30;;
40815;SDS011;26535;48.788;9.214;2022-11-20T08:54:37;2.53;;;1.30;;
40815;SDS011;26535;48.788;9.214;2022-11-20T08:57:03;2.58;;;1.27;;
40815;SDS011;26535;48.788;9.214;2022-11-20T08:59:47;2.35;;;1.10;;
40815;SDS011;26535;48.788;9.214;2022-11-20T09:02:14;2.20;;;1.10;;
40815;SDS011;26535;48.788;9.214;2022-11-20T09:04:42;2.58;;;1.10;;
40815;SDS011;26535;48.788;9.214;2022-11-20T09:07:11;2.45;;;1.00;;
40815;SDS011;26535;48.788;9.214;2022-11-20T09:09:37;2.20;;;0.85;;
40815;SDS011;26535;48.788;9.214;2022-11-20T09:12:03;1.40;;;0.63;;
40815;SDS011;26535;48.788;9.214;2022-11-20T09:14:28;1.40;;;0.75;;
40815;SDS011;26535;48.788;9.214;2022-11-20T09:17:04;2.42;;;0.90;;
40815;SDS011;26535;48.788;9.214;2022-11-20T09:19:57;1.50;;;0.70;;
40815;SDS011;26535;48.788;9.214;2022-11-20T09:22:23;3.20;;;0.98;;
40815;SDS011;26535;48.788;9.214;2022-11-20T09:25:09;1.95;;;0.70;;
40815;SDS011;26535;48.788;9.214;2022-11-20T09:27:44;2.80;;;0.80;;
40815;SDS011;26535;48.788;9.214;2022-11-20T09:30:34;3.47;;;1.10;;
40815;SDS011;26535;48.788;9.214;2022-11-20T09:33:00;1.75;;;0.73;;
40815;SDS011;26535;48.788;9.214;2022-11-20T09:35:26;1.67;;;0.60;;
40815;SDS011;26535;48.788;9.214;2022-11-20T09:37:52;2.60;;;0.88;;
40815;SDS011;26535;48.788;9.214;2022-11-20T09:40:24;2.85;;;0.80;;
40815;SDS011;26535;48.788;9.214;2022-11-20T09:48:29;1.52;;;0.60;;
40815;SDS011;26535;48.788;9.214;2022-11-20T09:56:36;1.38;;;0.30;;
40815;SDS011;26535;48.788;9.214;2022-11-20T10:02:27;1.83;;;0.73;;
40815;SDS011;26535;48.788;9.214;2022-11-20T10:05:21;0.98;;;0.30;;
40815;SDS011;26535;48.788;9.214;2022-11-20T10:14:01;1.25;;;0.40;;
40815;SDS011;26535;48.788;9.214;2022-11-20T10:16:58;1.63;;;0.40;;
40815;SDS011;26535;48.788;9.214;2022-11-20T10:19:47;1.25;;;0.40;;
40815;SDS011;26535;48.788;9.214;2022-11-20T10:26:01;1.10;;;0.50;;
40815;SDS011;26535;48.788;9.214;2022-11-20T10:49:16;1.17;;;0.50;;
40815;SDS011;26535;48.788;9.214;2022-11-20T10:54:52;1.90;;;0.60;;
40815;SDS011;26535;48.788;9.214;2022-11-20T11:01:15;3.83;;;1.00;;
40815;SDS011;26535;48.788;9.214;2022-11-20T11:03:52;2.75;;;0.95;;
40815;SDS011;26535;48.788;9.214;2022-11-20T11:06:33;2.28;;;0.80;;
40815;SDS011;26535;48.788;9.214;2022-11-20T11:09:14;1.50;;;0.70;;
40815;SDS011;26535;48.788;9.214;2022-11-20T11:11:45;1.77;;;0.70;;
40815;SDS011;26535;48.788;9.214;2022-11-20T11:14:15;1.60;;;0.90;;
40815;SDS011;26535;48.788;9.214;2022-11-20T11:19:39;2.20;;;1.17;;
40815;SDS011;26535;48.788;9.214;2022-11-20T11:22:04;3.05;;;1.00;;
40815;SDS011;26535;48.788;9.214;2022-11-20T11:24:43;2.38;;;1.02;;
40815;SDS011;26535;48.788;9.214;2022-11-20T11:27:17;3.00;;;1.30;;
40815;SDS011;26535;48.788;9.214;2022-11-20T11:29:43;3.70;;;1.30;;
40815;SDS011;26535;48.788;9.214;2022-11-20T11:32:20;2.30;;;1.15;;
40815;SDS011;26535;48.788;9.214;2022-11-20T11:35:00;2.97;;;1.30;;
40815;SDS011;26535;48.788;9.214;2022-11-20T11:37:29;2.08;;;0.93;;
40815;SDS011;26535;48.788;9.214;2022-11-20T11:40:03;1.90;;;0.70;;
40815;SDS011;26535;48.788;9.214;2022-11-20T11:42:30;1.60;;;0.60;;
40815;SDS011;26535;48.788;9.214;2022-11-20T11:44:58;2.55;;;0.90;;
40815;SDS011;26535;48.788;9.214;2022-11-20T11:47:46;3.58;;;1.55;;
40815;SDS011;26535;48.788;9.214;2022-11-20T11:50:26;2.17;;;0.73;;
40815;SDS011;26535;48.788;9.214;2022-11-20T11:53:09;2.03;;;0.70;;
40815;SDS011;26535;48.788;9.214;2022-11-20T11:55:45;2.08;;;0.70;;
40815;SDS011;26535;48.788;9.214;2022-11-20T12:01:14;1.50;;;0.50;;
40815;SDS011;26535;48.788;9.214;2022-11-20T12:06:57;1.77;;;0.60;;
40815;SDS011;26535;48.788;9.214;2022-11-20T12:09:34;2.25;;;1.00;;
40815;SDS011;26535;48.788;9.214;2022-11-20T12:12:08;3.70;;;1.00;;
40815;SDS011;26535;48.788;9.214;2022-11-20T12:14:42;3.63;;;0.82;;
40815;SDS011;26535;48.788;9.214;2022-11-20T12:17:10;2.08;;;0.60;;
40815;SDS011;26535;48.788;9.214;2022-11-20T12:19:38;3.17;;;0.60;;
40815;SDS011;26535;48.788;9.214;2022-11-20T12:25:24;3.53;;;1.00;;
40815;SDS011;26535;48.788;9.214;2022-11-20T12:30:27;2.17;;;0.73;;
40815;SDS011;26535;48.788;9.214;2022-11-20T12:41:18;2.00;;;0.70;;
40815;SDS011;26535;48.788;9.214;2022-11-20T12:45:05;2.33;;;0.60;;
40815;SDS011;26535;48.788;9.214;2022-11-20T12:53:03;1.25;;;0.40;;
40815;SDS011;26535;48.788;9.214;2022-11-20T12:55:45;2.60;;;0.50;;
40815;SDS011;26535;48.788;9.214;2022-11-20T12:58:29;2.17;;;0.50;;
40815;SDS011;26535;48.788;9.214;2022-11-20T13:06:52;1.23;;;0.40;;
40815;SDS011;26535;48.788;9.214;2022-11-20T13:09:19;2.55;;;0.50;;
40815;SDS011;26535;48.788;9.214;2022-11-20T13:14:50;2.78;;;0.60;;
40815;SDS011;26535;48.788;9.214;2022-11-20T13:17:36;1.73;;;0.40;;
40815;SDS011;26535;48.788;9.214;2022-11-20T13:20:19;1.48;;;0.60;;
40815;SDS011;26535;48.788;9.214;2022-11-20T13:22:52;3.10;;;0.40;;
40815;SDS011;26535;48.788;9.214;2022-11-20T13:28:38;2.00;;;0.30;;
40815;SDS011;26535;48.788;9.214;2022-11-20T13:33:59;1.83;;;0.70;;
40815;SDS011;26535;48.788;9.214;2022-11-20T13:36:30;1.42;;;0.40;;
40815;SDS011;26535;48.788;9.214;2022-11-20T13:38:57;1.13;;;0.30;;
40815;SDS011;26535;48.788;9.214;2022-11-20T13:41:25;3.58;;;0.60;;
40815;SDS011;26535;48.788;9.214;2022-11-20T13:44:15;2.60;;;0.88;;
40815;SDS011;26535;48.788;9.214;2022-11-20T13:46:50;2.92;;;0.65;;
40815;SDS011;26535;48.788;9.214;2022-11-20T13:58:59;2.13;;;0.40;;
40815;SDS011;26535;48.788;9.214;2022-11-20T14:01:42;2.58;;;0.68;;
40815;SDS011;26535;48.788;9.214;2022-11-20T14:04:28;1.95;;;0.50;;
40815;SDS011;26535;48.788;9.214;2022-11-20T14:07:35;3.10;;;0.60;;
40815;SDS011;26535;48.788;9.214;2022-11-20T14:12:43;2.08;;;0.45;;
40815;SDS011;26535;48.788;9.214;2022-11-20T14:15:22;2.13;;;0.52;;
40815;SDS011;26535;48.788;9.214;2022-11-20T14:21:02;2.65;;;0.60;;
40815;SDS011;26535;48.788;9.214;2022-11-20T14:23:29;1.95;;;0.70;;
40815;SDS011;26535;48.788;9.214;2022-11-20T14:25:55;1.70;;;0.60;;
40815;SDS011;26535;48.788;9.214;2022-11-20T14:28:28;3.10;;;0.90;;
40815;SDS011;26535;48.788;9.214;2022-11-20T14:30:56;2.50;;;0.90;;
40815;SDS011;26535;48.788;9.214;2022-11-20T14:33:22;3.60;;;0.80;;
40815;SDS011;26535;48.788;9.214;2022-11-20T14:35:54;3.00;;;0.80;;
40815;SDS011;26535;48.788;9.214;2022-11-20T14:38:23;3.83;;;0.95;;
40815;SDS011;26535;48.788;9.214;2022-11-20T14:40:51;5.88;;;1.30;;
40815;SDS011;26535;48.788;9.214;2022-11-20T14:43:22;1.90;;;1.00;;
40815;SDS011;26535;48.788;9.214;2022-11-20T14:46:08;3.67;;;1.80;;
40815;SDS011;26535;48.788;9.214;2022-11-20T14:48:39;4.72;;;1.83;;
40815;SDS011;26535;48.788;9.214;2022-11-20T14:53:55;1.98;;;0.63;;
40815;SDS011;26535;48.788;9.214;2022-11-20T14:56:24;3.15;;;0.95;;
40815;SDS011;26535;48.788;9.214;2022-11-20T14:58:57;3.78;;;1.30;;
40815;SDS011;26535;48.788;9.214;2022-11-20T15:01:26;2.33;;;0.93;;
40815;SDS011;26535;48.788;9.214;2022-11-20T15:03:59;3.08;;;0.98;;
40815;SDS011;26535;48.788;9.214;2022-11-20T15:06:36;2.53;;;0.90;;
40815;SDS011;26535;48.788;9.214;2022-11-20T15:09:03;1.88;;;0.70;;
40815;SDS011;26535;48.788;9.214;2022-11-20T15:11:32;3.20;;;1.33;;
40815;SDS011;26535;48.788;9.214;2022-11-20T15:14:04;3.50;;;1.52;;
40815;SDS011;26535;48.788;9.214;2022-11-20T15:16:31;3.42;;;1.80;;
40815;SDS011;26535;48.788;9.214;2022-11-20T15:18:57;5.38;;;1.20;;
40815;SDS011;26535;48.788;9.214;2022-11-20T15:21:23;4.05;;;1.00;;
40815;SDS011;26535;48.788;9.214;2022-11-20T15:23:49;2.80;;;0.80;;
40815;SDS011;26535;48.788;9.214;2022-11-20T15:26:23;4.55;;;1.38;;
40815;SDS011;26535;48.788;9.214;2022-11-20T15:28:51;3.30;;;1.20;;
40815;SDS011;26535;48.788;9.214;2022-11-20T15:31:18;3.38;;;1.67;;
40815;SDS011;26535;48.788;9.214;2022-11-20T15:33:46;4.50;;;1.70;;
40815;SDS011;26535;48.788;9.214;2022-11-20T15:36:12;3.33;;;1.15;;
40815;SDS011;26535;48.788;9.214;2022-11-20T15:38:38;5.65;;;2.83;;
40815;SDS011;26535;48.788;9.214;2022-11-20T15:41:04;4.13;;;1.10;;
40815;SDS011;26535;48.788;9.214;2022-11-20T15:43:30;4.47;;;1.63;;
40815;SDS011;26535;48.788;9.214;2022-11-20T15:45:56;5.57;;;1.90;;
40815;SDS011;26535;48.788;9.214;2022-11-20T15:48:44;3.45;;;1.20;;
40815;SDS011;26535;48.788;9.214;2022-11-20T15:53:36;2.72;;;1.23;;
40815;SDS011;26535;48.788;9.214;2022-11-20T15:56:13;2.72;;;1.30;;
40815;SDS011;26535;48.788;9.214;2022-11-20T15:58:39;4.70;;;2.13;;
40815;SDS011;26535;48.788;9.214;2022-11-20T16:01:12;3.53;;;1.90;;
40815;SDS011;26535;48.788;9.214;2022-11-20T16:03:41;2.97;;;1.60;;
40815;SDS011;26535;48.788;9.214;2022-11-20T16:06:07;2.25;;;1.10;;
40815;SDS011;26535;48.788;9.214;2022-11-20T16:08:33;3.90;;;1.77;;
40815;SDS011;26535;48.788;9.214;2022-11-20T16:10:59;3.97;;;1.40;;
40815;SDS011;26535;48.788;9.214;2022-11-20T16:13:25;2.78;;;1.27;;
40815;SDS011;26535;48.788;9.214;2022-11-20T16:16:19;2.92;;;1.33;;
40815;SDS011;26535;48.788;9.214;2022-11-20T16:18:48;3.17;;;1.73;;
40815;SDS011;26535;48.788;9.214;2022-11-20T16:21:15;8.43;;;3.95;;
40815;SDS011;26535;48.788;9.214;2022-11-20T16:23:41;5.18;;;3.10;;
40815;SDS011;26535;48.788;9.214;2022-11-20T16:26:14;5.03;;;1.92;;
40815;SDS011;26535;48.788;9.214;2022-11-20T16:28:48;4.47;;;1.83;;
40815;SDS011;26535;48.788;9.214;2022-11-20T16:31:17;4.85;;;1.88;;
40815;SDS011;26535;48.788;9.214;2022-11-20T16:33:50;4.60;;;1.88;;
40815;SDS011;26535;48.788;9.214;2022-11-20T16:36:18;3.15;;;1.67;;
40815;SDS011;26535;48.788;9.214;2022-11-20T16:38:45;2.53;;;1.30;;
40815;SDS011;26535;48.788;9.214;2022-11-20T16:41:10;4.32;;;1.60;;
40815;SDS011;26535;48.788;9.214;2022-11-20T16:46:27;3.35;;;1.55;;
40815;SDS011;26535;48.788;9.214;2022-11-20T16:48:56;5.75;;;1.50;;
40815;SDS011;26535;48.788;9.214;2022-11-20T16:51:31;3.17;;;1.63;;
40815;SDS011;26535;48.788;9.214;2022-11-20T16:54:06;5.40;;;1.85;;
40815;SDS011;26535;48.788;9.214;2022-11-20T16:56:33;4.22;;;1.83;;
40815;SDS011;26535;48.788;9.214;2022-11-20T16:58:59;3.72;;;1.60;;
40815;SDS011;26535;48.788;9.214;2022-11-20T17:01:32;3.85;;;1.70;;
40815;SDS011;26535;48.788;9.214;2022-11-20T17:06:29;5.25;;;2.03;;
40815;SDS011;26535;48.788;9.214;2022-11-20T17:11:42;3.25;;;1.52;;
40815;SDS011;26535;48.788;9.214;2022-11-20T17:14:09;5.45;;;1.60;;
40815;SDS011;26535;48.788;9.214;2022-11-20T17:17:10;4.43;;;2.08;;
40815;SDS011;26535;48.788;9.214;2022-11-20T17:19:38;4.85;;;2.30;;
40815;SDS011;26535;48.788;9.214;2022-11-20T17:22:13;6.55;;;3.00;;
40815;SDS011;26535;48.788;9.214;2022-11-20T17:24:39;4.30;;;3.05;;
40815;SDS011;26535;48.788;9.214;2022-11-20T17:28:02;4.38;;;2.30;;
40815;SDS011;26535;48.788;9.214;2022-11-20T18:07:55;3.50;;;1.67;;
40815;SDS011;26535;48.788;9.214;2022-11-20T18:13:11;4.03;;;1.33;;
40815;SDS011;26535;48.788;9.214;2022-11-20T18:15:40;3.13;;;1.33;;
40815;SDS011;26535;48.788;9.214;2022-11-20T18:18:34;3.47;;;1.33;;
40815;SDS011;26535;48.788;9.214;2022-11-20T18:20:59;3.83;;;1.60;;
40815;SDS011;26535;48.788;9.214;2022-11-20T18:23:25;3.95;;;1.48;;
40815;SDS011;26535;48.788;9.214;2022-11-20T18:25:51;3.45;;;1.10;;
40815;SDS011;26535;48.788;9.214;2022-11-20T18:28:17;3.25;;;1.27;;
40815;SDS011;26535;48.788;9.214;2022-11-20T18:30:50;4.15;;;1.50;;
40815;SDS011;26535;48.788;9.214;2022-11-20T18:33:16;3.05;;;1.23;;
40815;SDS011;26535;48.788;9.214;2022-11-20T18:35:42;3.75;;;1.58;;
40815;SDS011;26535;48.788;9.214;2022-11-20T18:38:08;4.95;;;1.92;;
40815;SDS011;26535;48.788;9.214;2022-11-20T18:40:49;2.97;;;1.30;;
40815;SDS011;26535;48.788;9.214;2022-11-20T18:43:17;8.63;;;1.95;;
40815;SDS011;26535;48.788;9.214;2022-11-20T18:46:02;5.28;;;1.90;;
40815;SDS011;26535;48.788;9.214;2022-11-20T18:48:32;5.45;;;1.70;;
40815;SDS011;26535;48.788;9.214;2022-11-20T18:51:07;6.15;;;1.70;;
40815;SDS011;26535;48.788;9.214;2022-11-20T18:53:36;3.45;;;1.85;;
40815;SDS011;26535;48.788;9.214;2022-11-20T18:56:03;3.25;;;1.40;;
40815;SDS011;26535;48.788;9.214;2022-11-20T18:58:29;2.78;;;1.20;;
40815;SDS011;26535;48.788;9.214;2022-11-20T19:00:55;2.67;;;1.17;;
40815;SDS011;26535;48.788;9.214;2022-11-20T19:03:21;4.38;;;1.58;;
40815;SDS011;26535;48.788;9.214;2022-11-20T19:05:46;3.28;;;1.35;;
40815;SDS011;26535;48.788;9.214;2022-11-20T19:08:12;3.95;;;1.60;;
40815;SDS011;26535;48.788;9.214;2022-11-20T19:10:44;3.67;;;1.15;;
40815;SDS011;26535;48.788;9.214;2022-11-20T19:13:09;3.05;;;1.10;;
40815;SDS011;26535;48.788;9.214;2022-11-20T19:15:35;2.97;;;1.05;;
40815;SDS011;26535;48.788;9.214;2022-11-20T19:18:03;2.73;;;1.27;;
40815;SDS011;26535;48.788;9.214;2022-11-20T19:20:29;2.17;;;0.80;;
40815;SDS011;26535;48.788;9.214;2022-11-20T19:22:58;2.17;;;0.80;;
40815;SDS011;26535;48.788;9.214;2022-11-20T19:25:29;1.38;;;0.70;;
40815;SDS011;26535;48.788;9.214;2022-11-20T19:27:55;1.88;;;0.75;;
40815;SDS011;26535;48.788;9.214;2022-11-20T19:30:21;1.95;;;0.65;;
40815;SDS011;26535;48.788;9.214;2022-11-20T19:32:47;2.45;;;0.63;;
40815;SDS011;26535;48.788;9.214;2022-11-20T19:35:12;2.60;;;1.05;;
40815;SDS011;26535;48.788;9.214;2022-11-20T19:37:38;1.52;;;0.68;;
40815;SDS011;26535;48.788;9.214;2022-11-20T19:40:04;0.90;;;0.40;;
40815;SDS011;26535;48.788;9.214;2022-11-20T19:42:30;3.50;;;1.02;;
40815;SDS011;26535;48.788;9.214;2022-11-20T19:44:56;1.80;;;0.68;;
40815;SDS011;26535;48.788;9.214;2022-11-20T19:47:22;1.48;;;0.50;;
40815;SDS011;26535;48.788;9.214;2022-11-20T19:49:48;1.20;;;0.50;;
40815;SDS011;26535;48.788;9.214;2022-11-20T19:52:14;1.13;;;0.40;;
40815;SDS011;26535;48.788;9.214;2022-11-20T19:54:40;1.27;;;0.40;;
40815;SDS011;26535;48.788;9.214;2022-11-20T19:57:08;0.82;;;0.40;;
40815;SDS011;26535;48.788;9.214;2022-11-20T19:59:34;1.00;;;0.30;;
40815;SDS011;26535;48.788;9.214;2022-11-20T20:02:00;0.77;;;0.30;;
40815;SDS011;26535;48.788;9.214;2022-11-20T20:04:27;1.38;;;0.40;;
40815;SDS011;26535;48.788;9.214;2022-11-20T20:06:53;0.90;;;0.30;;
40815;SDS011;26535;48.788;9.214;2022-11-20T20:09:20;1.13;;;0.30;;
40815;SDS011;26535;48.788;9.214;2022-11-20T20:11:47;1.95;;;0.28;;
40815;SDS011;26535;48.788;9.214;2022-11-20T20:14:14;1.58;;;0.32;;
40815;SDS011;26535;48.788;9.214;2022-11-20T20:16:41;1.30;;;0.30;;
40815;SDS011;26535;48.788;9.214;2022-11-20T20:19:10;1.23;;;0.50;;
40815;SDS011;26535;48.788;9.214;2022-11-20T20:21:37;1.63;;;0.63;;
40815;SDS011;26535;48.788;9.214;2022-11-20T20:24:03;1.65;;;0.30;;
40815;SDS011;26535;48.788;9.214;2022-11-20T20:26:29;0.43;;;0.30;;
40815;SDS011;26535;48.788;9.214;2022-11-20T20:28:56;1.17;;;0.30;;
40815;SDS011;26535;48.788;9.214;2022-11-20T20:31:23;1.52;;;0.32;;
40815;SDS011;26535;48.788;9.214;2022-11-20T20:33:50;1.25;;;0.28;;
40815;SDS011;26535;48.788;9.214;2022-11-20T20:36:20;1.98;;;0.47;;
40815;SDS011;26535;48.788;9.214;2022-11-20T20:38:50;0.80;;;0.40;;
40815;SDS011;26535;48.788;9.214;2022-11-20T20:41:18;0.50;;;0.20;;
40815;SDS011;26535;48.788;9.214;2022-11-20T20:43:44;1.02;;;0.30;;
40815;SDS011;26535;48.788;9.214;2022-11-20T20:46:29;0.70;;;0.20;;
40815;SDS011;26535;48.788;9.214;2022-11-20T20:48:55;1.67;;;0.35;;
40815;SDS011;26535;48.788;9.214;2022-11-20T20:51:21;2.03;;;0.50;;
40815;SDS011;26535;48.788;9.214;2022-11-20T20:53:47;0.93;;;0.40;;
40815;SDS011;26535;48.788;9.214;2022-11-20T20:56:14;0.60;;;0.20;;
40815;SDS011;26535;48.788;9.214;2022-11-20T20:58:40;1.63;;;0.75;;
40815;SDS011;26535;48.788;9.214;2022-11-20T21:01:07;0.90;;;0.30;;
40815;SDS011;26535;48.788;9.214;2022-11-20T21:06:00;1.02;;;0.30;;
40815;SDS011;26535;48.788;9.214;2022-11-20T21:08:27;1.77;;;0.52;;
40815;SDS011;26535;48.788;9.214;2022-11-20T21:10:54;0.95;;;0.20;;
40815;SDS011;26535;48.788;9.214;2022-11-20T21:13:25;0.88;;;0.28;;
40815;SDS011;26535;48.788;9.214;2022-11-20T21:15:51;1.60;;;0.47;;
40815;SDS011;26535;48.788;9.214;2022-11-20T21:18:18;0.77;;;0.20;;
40815;SDS011;26535;48.788;9.214;2022-11-20T21:20:45;0.70;;;0.20;;
40815;SDS011;26535;48.788;9.214;2022-11-20T21:23:31;1.30;;;0.30;;
40815;SDS011;26535;48.788;9.214;2022-11-20T21:26:01;0.90;;;0.22;;
40815;SDS011;26535;48.788;9.214;2022-11-20T21:28:29;0.77;;;0.35;;
40815;SDS011;26535;48.788;9.214;2022-11-20T21:31:05;2.23;;;0.60;;
40815;SDS011;26535;48.788;9.214;2022-11-20T21:33:39;0.93;;;0.20;;
40815;SDS011;26535;48.788;9.214;2022-11-20T21:36:10;0.88;;;0.30;;
40815;SDS011;26535;48.788;9.214;2022-11-20T21:38:38;0.85;;;0.20;;
40815;SDS011;26535;48.788;9.214;2022-11-20T21:41:04;0.93;;;0.20;;
40815;SDS011;26535;48.788;9.214;2022-11-20T21:43:31;1.58;;;0.25;;
40815;SDS011;26535;48.788;9.214;2022-11-20T21:46:01;0.50;;;0.20;;
40815;SDS011;26535;48.788;9.214;2022-11-20T21:48:29;1.50;;;0.30;;
40815;SDS011;26535;48.788;9.214;2022-11-20T21:51:03;2.17;;;0.40;;
40815;SDS011;26535;48.788;9.214;2022-11-20T21:53:33;1.67;;;0.30;;
40815;SDS011;26535;48.788;9.214;2022-11-20T21:56:06;0.75;;;0.30;;
40815;SDS011;26535;48.788;9.214;2022-11-20T21:58:33;0.88;;;0.30;;
40815;SDS011;26535;48.788;9.214;2022-11-20T22:01:16;0.80;;;0.30;;
40815;SDS011;26535;48.788;9.214;2022-11-20T22:03:52;1.80;;;0.32;;
40815;SDS011;26535;48.788;9.214;2022-11-20T22:06:24;1.90;;;0.40;;
40815;SDS011;26535;48.788;9.214;2022-11-20T22:08:51;2.40;;;0.40;;
40815;SDS011;26535;48.788;9.214;2022-11-20T22:11:19;1.05;;;0.30;;
40815;SDS011;26535;48.788;9.214;2022-11-20T22:13:45;1.48;;;0.40;;
40815;SDS011;26535;48.788;9.214;2022-11-20T22:16:34;1.10;;;0.40;;
40815;SDS011;26535;48.788;9.214;2022-11-20T22:19:00;2.45;;;0.30;;
40815;SDS011;26535;48.788;9.214;2022-11-20T22:21:28;1.17;;;0.20;;
40815;SDS011;26535;48.788;9.214;2022-11-20T22:23:57;1.95;;;0.30;;
40815;SDS011;26535;48.788;9.214;2022-11-20T22:26:27;1.55;;;0.50;;
40815;SDS011;26535;48.788;9.214;2022-11-20T22:28:55;1.55;;;0.30;;
40815;SDS011;26535;48.788;9.214;2022-11-20T22:31:23;2.47;;;0.47;;
40815;SDS011;26535;48.788;9.214;2022-11-20T22:33:50;2.57;;;0.93;;
40815;SDS011;26535;48.788;9.214;2022-11-20T22:36:17;1.80;;;0.52;;
40815;SDS011;26535;48.788;9.214;2022-11-20T22:38:44;1.13;;;0.28;;
40815;SDS011;26535;48.788;9.214;2022-11-20T22:41:13;0.95;;;0.32;;
40815;SDS011;26535;48.788;9.214;2022-11-20T22:43:44;5.15;;;0.90;;
40815;SDS011;26535;48.788;9.214;2022-11-20T22:46:11;2.80;;;0.40;;
40815;SDS011;26535;48.788;9.214;2022-11-20T22:48:38;1.33;;;0.38;;
40815;SDS011;26535;48.788;9.214;2022-11-20T22:51:12;0.88;;;0.30;;
40815;SDS011;26535;48.788;9.214;2022-11-20T22:53:39;1.73;;;0.30;;
40815;SDS011;26535;48.788;9.214;2022-11-20T22:56:06;3.60;;;0.80;;
40815;SDS011;26535;48.788;9.214;2022-11-20T22:58:34;2.77;;;0.50;;
40815;SDS011;26535;48.788;9.214;2022-11-20T23:03:32;2.30;;;0.43;;
40815;SDS011;26535;48.788;9.214;2022-11-20T23:05:58;2.15;;;0.32;;
40815;SDS011;26535;48.788;9.214;2022-11-20T23:08:25;1.50;;;0.50;;
40815;SDS011;26535;48.788;9.214;2022-11-20T23:10:51;2.05;;;0.68;;
40815;SDS011;26535;48.788;9.214;2022-11-20T23:13:16;1.58;;;0.47;;
40815;SDS011;26535;48.788;9.214;2022-11-20T23:15:42;2.17;;;0.30;;
40815;SDS011;26535;48.788;9.214;2022-11-20T23:18:08;1.38;;;0.40;;
40815;SDS011;26535;48.788;9.214;2022-11-20T23:20:34;1.17;;;0.47;;
40815;SDS011;26535;48.788;9.214;2022-11-20T23:23:00;1.45;;;0.40;;
40815;SDS011;26535;48.788;9.214;2022-11-20T23:25:26;0.57;;;0.20;;
40815;SDS011;26535;48.788;9.214;2022-11-20T23:27:52;0.30;;;0.10;;
40815;SDS011;26535;48.788;9.214;2022-11-20T23:30:18;1.38;;;0.10;;
40815;SDS011;26535;48.788;9.214;2022-11-20T23:32:45;2.03;;;0.32;;
40815;SDS011;26535;48.788;9.214;2022-11-20T23:35:11;1.30;;;0.30;;
40815;SDS011;26535;48.788;9.214;2022-11-20T23:37:37;0.63;;;0.13;;
40815;SDS011;26535;48.788;9.214;2022-11-20T23:40:03;0.85;;;0.20;;
40815;SDS011;26535;48.788;9.214;2022-11-20T23:42:29;1.40;;;0.28;;
40815;SDS011;26535;48.788;9.214;2022-11-20T23:44:55;2.00;;;0.30;;
40815;SDS011;26535;48.788;9.214;2022-11-20T23:47:21;0.63;;;0.10;;
40815;SDS011;26535;48.788;9.214;2022-11-20T23:49:47;0.73;;;0.20;;
40815;SDS011;26535;48.788;9.214;2022-11-20T23:52:12;1.02;;;0.25;;
40815;SDS011;26535;48.788;9.214;2022-11-20T23:54:40;0.63;;;0.20;;
40815;SDS011;26535;48.788;9.214;2022-11-20T23:57:06;1.40;;;0.20;;
40815;SDS011;26535;48.788;9.214;2022-11-20T23:59:32;1.83;;;0.20;;
